Time;durP1;ratioP1;P1;durP2;ratioP2;P2;SDS_P1;SDS_P2;PMS_P1;PMS_P2;Temp;Humidity;BMP_temperature;BMP_pressure;BME280_temperature;BME280_humidity;BME280_pressure;Samples;Min_cycle;Max_cycle;Signal;HPM_P1;HPM_P2
2021/11/10 00:01:26;;;;;;;16.90;8.23;;;;;;;3.60;76.33;101329.47;4899102;29;20048;-64
2021/11/10 00:03:59;;;;;;;18.42;8.00;;;;;;;3.62;75.72;101328.78;4899055;29;20496;-64
2021/11/10 00:06:31;;;;;;;16.55;8.30;;;;;;;3.57;75.97;101322.59;4898769;29;20053;-65
2021/11/10 00:09:04;;;;;;;16.98;8.25;;;;;;;3.53;76.34;101323.19;4898728;29;20059;-64
2021/11/10 00:11:37;;;;;;;17.48;8.75;;;;;;;3.59;76.22;101323.56;4898658;29;20056;-63
2021/11/10 00:14:10;;;;;;;15.63;7.72;;;;;;;3.58;76.20;101320.91;4898680;29;20061;-62
2021/11/10 00:16:41;;;;;;;19.70;9.45;;;;;;;3.54;75.60;101317.38;4916145;29;20094;-63
2021/11/10 00:19:47;;;;;;;17.90;8.30;;;;;;;3.53;76.05;101308.06;5054818;23;20092;-66
2021/11/10 00:22:46;;;;;;;21.67;8.98;;;;;;;3.61;76.19;101311.88;4898311;29;20116;-63
2021/11/10 00:25:21;;;;;;;17.45;8.30;;;;;;;3.71;75.62;101320.81;4898769;29;20474;-62
2021/11/10 00:27:55;;;;;;;16.40;8.43;;;;;;;3.77;76.34;101319.47;4898619;29;20053;-62
2021/11/10 00:30:24;;;;;;;19.38;8.32;;;;;;;3.69;75.98;101284.50;4898821;29;20647;-63
2021/11/10 00:33:32;;;;;;;18.10;8.40;;;;;;;3.72;76.12;101318.34;4893809;23;20122;-64
2021/11/10 00:36:02;;;;;;;16.20;8.30;;;;;;;3.67;76.23;101317.22;4915461;29;20048;-60
2021/11/10 00:38:31;;;;;;;16.02;8.23;;;;;;;3.59;76.32;101315.97;4916078;29;20053;-61
2021/11/10 00:41:05;;;;;;;16.67;8.55;;;;;;;3.47;76.38;101309.41;4915244;29;20487;-60
2021/11/10 00:43:37;;;;;;;16.75;8.10;;;;;;;3.44;76.29;101306.69;4915310;29;20099;-61
2021/11/10 00:46:10;;;;;;;15.90;7.93;;;;;;;3.39;76.00;101303.94;4915198;29;20131;-61
2021/11/10 00:48:39;;;;;;;16.88;7.38;;;;;;;3.46;76.18;101300.94;4915471;29;20060;-61
2021/11/10 00:51:09;;;;;;;15.43;7.43;;;;;;;3.39;76.80;101307.34;4915273;29;20075;-61
2021/11/10 00:53:40;;;;;;;15.88;7.53;;;;;;;3.36;76.49;101304.63;4926483;29;20140;-61
2021/11/10 00:56:12;;;;;;;16.60;7.93;;;;;;;3.29;75.97;101299.16;4955311;28;20122;-61
2021/11/10 00:58:43;;;;;;;14.75;7.25;;;;;;;3.25;76.93;101300.69;4958162;28;20126;-61
2021/11/10 01:01:12;;;;;;;14.73;7.30;;;;;;;3.28;76.48;101297.47;4959046;28;20497;-61
2021/11/10 01:03:42;;;;;;;16.38;7.93;;;;;;;3.16;76.68;101289.22;4959372;28;20036;-60
2021/11/10 01:06:14;;;;;;;17.15;7.68;;;;;;;3.14;76.27;101290.78;4959234;28;20051;-61
2021/11/10 01:08:45;;;;;;;19.70;8.48;;;;;;;3.24;76.47;101282.91;4958902;28;20066;-61
2021/11/10 01:11:15;;;;;;;17.65;7.75;;;;;;;3.17;77.17;101255.63;4958846;28;20057;-61
2021/11/10 01:13:46;;;;;;;17.23;8.23;;;;;;;3.40;77.40;101280.44;4957680;29;20054;-60
2021/11/10 01:16:19;;;;;;;17.80;9.05;;;;;;;3.72;77.89;101283.00;4959101;28;20133;-61
2021/11/10 01:18:55;;;;;;;22.73;9.13;;;;;;;4.18;77.63;101278.63;4957948;29;20055;-61
2021/11/10 01:21:30;;;;;;;15.68;7.60;;;;;;;4.40;78.13;101276.41;4957586;29;20051;-61
2021/11/10 01:24:01;;;;;;;23.10;9.13;;;;;;;4.73;78.35;101289.81;4958665;28;20055;-61
2021/11/10 01:26:33;;;;;;;21.13;9.57;;;;;;;5.04;78.64;101280.34;4958819;28;20489;-61
2021/11/10 01:29:07;;;;;;;20.52;9.30;;;;;;;5.08;78.29;101276.31;4957465;29;20061;-61
2021/11/10 01:31:40;;;;;;;18.25;8.52;;;;;;;5.04;78.50;101272.75;4958519;28;20125;-61
2021/11/10 01:34:12;;;;;;;18.48;7.95;;;;;;;5.28;78.74;101270.50;4974184;28;20093;-61
2021/11/10 01:36:48;;;;;;;18.35;8.10;;;;;;;5.43;78.75;101271.19;4979867;28;20054;-61
2021/11/10 01:39:18;;;;;;;16.63;8.35;;;;;;;5.54;78.26;101271.69;4997439;28;20050;-61
2021/11/10 01:41:53;;;;;;;17.75;8.70;;;;;;;5.36;78.08;101270.06;4997095;28;20042;-61
2021/11/10 01:44:27;;;;;;;15.85;7.57;;;;;;;5.28;77.95;101276.44;4997077;28;20411;-61
2021/11/10 01:47:00;;;;;;;18.65;8.77;;;;;;;5.19;77.66;101278.53;4996954;28;20165;-61
2021/11/10 01:49:30;;;;;;;18.25;8.73;;;;;;;5.14;77.58;101272.41;4997290;28;20086;-61
2021/11/10 01:52:06;;;;;;;17.17;8.13;;;;;;;4.91;77.13;101273.00;4996904;28;20054;-61
2021/11/10 01:54:37;;;;;;;19.10;8.73;;;;;;;4.74;76.62;101273.84;4996868;28;20046;-61
2021/11/10 01:57:12;;;;;;;18.02;8.65;;;;;;;4.66;76.72;101272.59;4996803;28;20492;-61
2021/11/10 01:59:50;;;;;;;19.27;8.65;;;;;;;4.60;77.08;101259.69;4979766;28;20471;-61
2021/11/10 02:02:25;;;;;;;16.52;8.32;;;;;;;4.47;77.28;101267.44;4996768;28;20086;-61
2021/11/10 02:05:04;;;;;;;19.05;8.65;;;;;;;4.55;77.25;101271.22;4979329;28;20057;-61
2021/11/10 02:07:39;;;;;;;18.92;8.70;;;;;;;4.53;77.53;101250.06;4996605;28;20558;-61
2021/11/10 02:10:15;;;;;;;17.90;9.23;;;;;;;4.38;77.55;101256.91;4995705;28;20400;-61
2021/11/10 02:12:44;;;;;;;16.45;8.55;;;;;;;4.32;77.26;101256.59;4996482;28;20101;-60
2021/11/10 02:15:20;;;;;;;16.30;8.50;;;;;;;4.34;77.61;101262.59;4996487;28;20101;-61
2021/11/10 02:17:56;;;;;;;18.85;8.85;;;;;;;4.26;76.87;101261.34;4996447;28;20145;-61
2021/11/10 02:20:36;;;;;;;17.48;8.27;;;;;;;4.22;77.26;101262.88;4979374;28;20050;-61
2021/11/10 02:23:11;;;;;;;17.58;7.55;;;;;;;4.17;77.45;101260.88;4996326;28;20133;-61
2021/11/10 02:25:41;;;;;;;19.10;8.73;;;;;;;4.21;77.31;101256.06;4996560;28;20056;-61
2021/11/10 02:28:14;;;;;;;16.67;7.78;;;;;;;4.11;77.22;101251.34;4979251;28;20125;-61
2021/11/10 02:30:47;;;;;;;16.38;7.57;;;;;;;4.16;77.38;101247.38;4996540;28;20145;-61
2021/11/10 02:33:28;;;;;;;17.45;8.13;;;;;;;4.20;77.01;101250.94;4995938;28;20046;-61
2021/11/10 02:36:01;;;;;;;17.65;7.63;;;;;;;4.23;76.99;101253.59;4996110;28;20048;-61
2021/11/10 02:38:35;;;;;;;19.35;8.32;;;;;;;4.13;77.14;101248.91;4978767;28;20046;-61
2021/11/10 02:41:09;;;;;;;17.50;8.23;;;;;;;4.07;76.87;101245.28;4978675;28;20054;-61
2021/11/10 02:43:39;;;;;;;16.10;7.38;;;;;;;4.06;77.01;101238.47;4996459;28;20538;-61
2021/11/10 02:46:11;;;;;;;17.80;8.15;;;;;;;4.07;77.04;101244.41;4995800;28;20120;-61
2021/11/10 02:48:43;;;;;;;21.08;8.43;;;;;;;4.09;77.32;101242.81;4995885;28;20105;-61
2021/11/10 02:51:16;;;;;;;17.95;7.32;;;;;;;4.15;76.76;101242.28;4995814;28;20129;-61
2021/11/10 02:53:47;;;;;;;19.27;8.23;;;;;;;3.96;77.05;101226.16;4995742;28;20058;-61
2021/11/10 02:56:19;;;;;;;20.45;8.27;;;;;;;4.04;76.74;101255.22;4995801;28;20480;-61
2021/11/10 02:58:49;;;;;;;17.00;7.25;;;;;;;4.05;76.75;101249.38;4995947;28;20554;-60
2021/11/10 03:01:22;;;;;;;16.83;7.65;;;;;;;4.02;76.67;101266.03;4995633;28;20096;-61
2021/11/10 03:03:52;;;;;;;19.90;8.70;;;;;;;3.96;77.13;101260.66;4978482;28;20412;-61
2021/11/10 03:06:25;;;;;;;22.40;8.75;;;;;;;4.00;77.21;101263.44;4995416;28;20096;-61
2021/11/10 03:09:33;;;;;;;19.27;8.00;;;;;;;4.04;77.24;101257.75;4371457;26;20555;-60
2021/11/10 03:12:16;;;;;;;19.67;8.05;;;;;;;4.02;76.98;101264.38;4995671;28;20557;-60
2021/11/10 03:14:50;;;;;;;20.45;7.47;;;;;;;3.98;76.81;101265.00;4978311;28;20050;-60
2021/11/10 03:17:24;;;;;;;15.77;7.18;;;;;;;3.91;76.19;101268.00;4995642;28;20500;-60
2021/11/10 03:19:56;;;;;;;18.55;9.38;;;;;;;3.92;76.96;101264.72;4995299;28;20050;-60
2021/11/10 03:22:26;;;;;;;17.02;8.43;;;;;;;3.93;76.72;101270.63;4978227;28;20550;-60
2021/11/10 03:25:01;;;;;;;16.25;7.35;;;;;;;3.91;76.57;101268.00;4995119;28;20074;-60
2021/11/10 03:27:33;;;;;;;16.92;8.38;;;;;;;3.80;76.14;101274.19;4995481;28;20093;-60
2021/11/10 03:30:10;;;;;;;17.98;8.13;;;;;;;3.73;76.46;101256.97;4995889;28;20101;-60
2021/11/10 03:32:55;;;;;;;16.38;7.53;;;;;;;3.75;76.77;101265.50;4995004;28;20143;-60
2021/11/10 03:35:28;;;;;;;19.75;7.45;;;;;;;3.72;76.59;101265.31;4994951;28;20061;-60
2021/11/10 03:38:01;;;;;;;16.75;7.78;;;;;;;3.77;76.61;101261.38;4995202;28;20403;-60
2021/11/10 03:40:36;;;;;;;17.80;7.93;;;;;;;3.72;76.33;101265.31;4995202;28;20573;-60
2021/11/10 03:43:05;;;;;;;18.92;7.68;;;;;;;3.61;75.82;101258.88;4994877;28;20089;-60
2021/11/10 03:45:37;;;;;;;17.13;8.00;;;;;;;3.57;75.86;101259.50;4994721;28;20133;-60
2021/11/10 03:48:12;;;;;;;19.80;9.30;;;;;;;3.60;76.28;101259.63;4994684;28;20050;-60
2021/11/10 03:50:47;;;;;;;18.92;10.02;;;;;;;3.56;76.25;101265.31;4994690;28;20043;-60
2021/11/10 03:53:17;;;;;;;22.95;9.43;;;;;;;3.53;76.80;101260.09;4994959;28;20507;-60
2021/11/10 03:55:51;;;;;;;21.65;9.95;;;;;;;3.45;76.46;101263.03;4994549;28;20050;-61
2021/11/10 03:58:20;;;;;;;24.10;9.52;;;;;;;3.48;76.11;101266.56;4994611;28;20057;-61
2021/11/10 04:00:58;;;;;;;18.13;8.75;;;;;;;3.52;76.36;101258.38;4994556;28;20047;-60
2021/11/10 04:03:34;;;;;;;17.90;8.27;;;;;;;3.53;76.34;101260.09;4994833;28;20100;-60
2021/11/10 04:06:08;;;;;;;15.60;7.38;;;;;;;3.49;76.19;101255.69;4994444;28;20077;-60
2021/11/10 04:08:44;;;;;;;17.30;8.32;;;;;;;3.42;76.41;101253.63;4989826;28;20489;-60
2021/11/10 04:11:21;;;;;;;16.23;7.72;;;;;;;3.49;76.06;101245.59;4974722;28;20153;-60
2021/11/10 04:13:54;;;;;;;16.15;7.80;;;;;;;3.48;76.58;101251.41;4975010;28;20141;-60
2021/11/10 04:16:26;;;;;;;21.20;9.40;;;;;;;3.46;76.03;101260.56;4973762;28;20051;-61
2021/11/10 04:19:00;;;;;;;18.63;8.55;;;;;;;3.42;76.04;101252.75;4989916;28;20046;-60
2021/11/10 04:21:34;;;;;;;17.90;8.38;;;;;;;3.49;75.92;101254.81;4974045;28;20054;-60
2021/11/10 04:24:07;;;;;;;14.27;7.03;;;;;;;3.46;76.30;101255.53;4974853;28;20138;-61
2021/11/10 04:26:41;;;;;;;18.25;8.18;;;;;;;3.45;76.69;101263.91;4974746;28;20043;-60
2021/11/10 04:29:22;;;;;;;18.95;8.52;;;;;;;3.50;76.05;101249.88;4975708;28;20086;-61
2021/11/10 04:31:54;;;;;;;20.85;8.23;;;;;;;3.52;76.24;101239.84;4974449;28;20563;-61
2021/11/10 04:34:28;;;;;;;15.38;8.32;;;;;;;3.46;75.93;101245.44;4974729;28;20050;-61
2021/11/10 04:37:05;;;;;;;17.00;8.10;;;;;;;3.43;76.48;101242.78;4974671;28;20054;-61
2021/11/10 04:39:39;;;;;;;19.58;8.48;;;;;;;3.42;76.72;101237.63;4973544;28;20051;-61
2021/11/10 04:42:14;;;;;;;21.83;7.85;;;;;;;3.37;76.18;101239.91;4975024;28;20047;-60
2021/11/10 04:44:54;;;;;;;17.50;8.15;;;;;;;3.08;76.23;101209.75;4973508;28;20057;-60
2021/11/10 04:47:26;;;;;;;15.05;7.78;;;;;;;3.16;76.82;101233.72;4974877;28;20485;-60
2021/11/10 04:49:59;;;;;;;20.30;9.00;;;;;;;3.22;76.66;101239.09;4974941;28;20055;-61
2021/11/10 04:52:32;;;;;;;17.63;7.97;;;;;;;3.31;76.97;101229.50;4974598;28;20054;-60
2021/11/10 04:55:05;;;;;;;18.00;8.68;;;;;;;3.29;76.23;101231.94;4974572;28;20070;-60
2021/11/10 04:57:42;;;;;;;16.92;9.00;;;;;;;3.30;76.74;101227.75;4989484;28;20139;-60
2021/11/10 05:00:15;;;;;;;20.30;10.20;;;;;;;3.37;76.80;101219.72;4974558;28;20049;-60
2021/11/10 05:02:55;;;;;;;19.33;9.38;;;;;;;3.33;77.02;101222.88;4974498;28;20050;-60
2021/11/10 05:05:25;;;;;;;21.08;9.45;;;;;;;3.19;76.80;101214.56;4974762;28;20471;-60
2021/11/10 05:07:57;;;;;;;17.27;9.77;;;;;;;3.23;75.96;101223.16;4977373;28;20062;-60
2021/11/10 05:10:30;;;;;;;21.55;10.55;;;;;;;3.21;76.36;101222.22;4977086;28;20042;-60
2021/11/10 05:13:08;;;;;;;18.63;7.82;;;;;;;3.20;76.60;101220.47;4976738;28;20050;-60
2021/11/10 05:15:37;;;;;;;19.40;9.38;;;;;;;3.05;76.54;101220.53;4993843;28;20080;-60
2021/11/10 05:18:13;;;;;;;16.42;8.50;;;;;;;2.97;76.13;101210.81;4993646;28;20049;-60
2021/11/10 05:20:47;;;;;;;;;;;;;;;2.96;76.27;101219.16;4977269;28;20392;-60
2021/11/10 05:23:17;;;;;;;18.15;8.20;;;;;;;2.95;76.85;101222.50;4976387;28;19921;-60
2021/11/10 05:25:49;;;;;;;;;;;;;;;2.94;76.81;101220.75;4994740;28;20121;-60
2021/11/10 05:28:20;;;;;;;14.45;8.13;;;;;;;2.93;76.90;101219.88;4993594;28;19928;-60
2021/11/10 05:30:53;;;;;;;15.95;8.75;;;;;;;2.86;76.31;101217.81;4993976;28;20381;-60
2021/11/10 05:33:22;;;;;;;15.80;8.18;;;;;;;2.76;76.10;101222.28;4993635;28;20054;-60
2021/11/10 05:35:54;;;;;;;18.88;8.27;;;;;;;2.69;77.14;101221.03;4993926;28;20051;-60
2021/11/10 05:38:24;;;;;;;18.83;8.85;;;;;;;2.51;77.39;101228.47;4993516;28;20054;-60
2021/11/10 05:40:56;;;;;;;20.60;9.73;;;;;;;2.62;77.88;101219.84;4993880;28;20057;-60
2021/11/10 05:43:27;;;;;;;18.85;8.77;;;;;;;2.71;77.84;101222.88;4994536;28;20069;-60
2021/11/10 05:45:59;;;;;;;18.25;9.07;;;;;;;2.70;77.08;101226.19;4997288;28;20050;-60
2021/11/10 05:48:29;;;;;;;18.80;9.45;;;;;;;2.72;77.19;101237.22;4997113;28;20046;-60
2021/11/10 05:51:02;;;;;;;18.13;8.20;;;;;;;2.79;77.48;101229.97;4997228;28;20400;-60
2021/11/10 05:53:32;;;;;;;17.77;9.50;;;;;;;2.89;77.36;101239.78;4996895;28;20105;-60
2021/11/10 05:56:04;;;;;;;;;;;;;;;2.89;77.36;101243.19;4980002;28;20488;-60
2021/11/10 05:58:38;;;;;;;19.88;9.15;;;;;;;2.80;76.83;101245.22;4997015;28;19922;-60
2021/11/10 06:01:11;;;;;;;23.13;10.90;;;;;;;2.86;76.83;101242.13;4997054;28;20488;-60
2021/11/10 06:03:43;;;;;;;27.30;10.88;;;;;;;2.84;77.56;101248.75;4996691;28;20054;-60
2021/11/10 06:06:15;;;;;;;23.98;10.02;;;;;;;2.89;77.75;101267.53;4996675;28;20051;-60
2021/11/10 06:08:45;;;;;;;25.88;10.35;;;;;;;3.06;77.58;101266.78;4995654;28;20082;-61
2021/11/10 06:11:15;;;;;;;19.77;8.95;;;;;;;3.03;77.40;101266.63;4997399;28;20046;-61
2021/11/10 06:13:49;;;;;;;18.75;9.23;;;;;;;3.05;77.29;101260.00;4996417;28;20054;-60
2021/11/10 06:16:24;;;;;;;20.95;10.93;;;;;;;3.12;77.80;101262.09;4996477;28;20096;-60
2021/11/10 06:18:54;;;;;;;21.23;10.40;;;;;;;3.21;76.92;101272.69;4996725;28;20400;-60
2021/11/10 06:21:28;;;;;;;22.40;10.82;;;;;;;3.28;77.63;101267.19;4996306;28;20047;-60
2021/11/10 06:23:58;;;;;;;22.00;11.57;;;;;;;3.24;77.31;101275.34;4996238;28;20061;-60
2021/11/10 06:26:27;;;;;;;24.45;11.57;;;;;;;3.26;76.97;101276.31;4996160;28;20038;-60
2021/11/10 06:28:59;;;;;;;23.08;9.95;;;;;;;3.50;77.72;101267.53;4996446;28;20535;-60
2021/11/10 06:31:34;;;;;;;25.33;11.38;;;;;;;3.77;76.92;101268.97;4996140;28;20512;-60
2021/11/10 06:34:07;;;;;;;17.10;8.80;;;;;;;3.95;76.50;101269.91;4979152;28;20046;-61
2021/11/10 06:36:39;;;;;;;18.48;9.05;;;;;;;4.01;76.67;101279.44;4996041;28;20050;-60
2021/11/10 06:39:09;;;;;;;21.50;9.52;;;;;;;4.12;75.94;101267.38;4996027;28;20042;-60
2021/11/10 06:41:41;;;;;;;21.35;10.27;;;;;;;4.18;76.36;101272.72;4995937;28;20046;-60
2021/11/10 06:44:15;;;;;;;23.08;10.63;;;;;;;4.33;75.93;101278.53;4996367;28;20089;-60
2021/11/10 06:46:48;;;;;;;21.33;10.85;;;;;;;4.41;75.41;101283.22;4995844;28;20121;-60
2021/11/10 06:49:20;;;;;;;25.75;12.23;;;;;;;4.50;75.82;101291.22;4995905;28;20133;-61
2021/11/10 06:51:53;;;;;;;25.13;14.38;;;;;;;4.55;75.43;101267.03;4996226;28;20132;-61
2021/11/10 06:54:23;;;;;;;18.30;9.50;;;;;;;4.79;74.63;101282.53;4995756;28;20128;-60
2021/11/10 06:56:53;;;;;;;20.63;9.93;;;;;;;4.84;74.55;101281.09;4995052;28;20054;-60
2021/11/10 06:59:27;;;;;;;19.92;9.73;;;;;;;4.98;74.73;101275.03;4995680;28;20074;-60
2021/11/10 07:02:00;;;;;;;18.63;9.68;;;;;;;5.13;74.40;101288.41;4995882;28;20141;-60
2021/11/10 07:04:29;;;;;;;17.58;8.77;;;;;;;5.30;74.61;101279.06;4995611;28;20065;-60
2021/11/10 07:07:02;;;;;;;24.38;9.80;;;;;;;5.36;74.22;101284.38;4995589;28;20484;-60
2021/11/10 07:09:37;;;;;;;17.73;9.02;;;;;;;5.37;74.17;101276.84;4995230;28;20054;-60
2021/11/10 07:12:10;;;;;;;19.00;9.18;;;;;;;5.57;74.28;101269.28;4995971;28;20046;-61
2021/11/10 07:14:44;;;;;;;21.55;9.88;;;;;;;5.68;74.44;101274.03;4995225;28;20050;-60
2021/11/10 07:17:17;;;;;;;18.30;8.60;;;;;;;5.89;74.49;101264.88;4995616;28;20057;-60
2021/11/10 07:19:53;;;;;;;19.73;9.40;;;;;;;6.12;74.49;101270.06;4995551;28;20392;-60
2021/11/10 07:22:23;;;;;;;20.60;8.95;;;;;;;6.28;74.13;101265.72;4995196;28;20050;-60
2021/11/10 07:24:58;;;;;;;18.08;9.23;;;;;;;6.44;73.23;101273.13;4995470;28;20050;-60
2021/11/10 07:27:29;;;;;;;18.75;9.10;;;;;;;6.56;72.87;101265.16;4995373;28;20472;-60
2021/11/10 07:30:03;;;;;;;18.88;9.70;;;;;;;6.66;73.25;101260.53;4994999;28;20101;-60
2021/11/10 07:32:36;;;;;;;22.52;9.52;;;;;;;6.82;72.96;101261.13;4995038;28;20069;-60
2021/11/10 07:35:08;;;;;;;20.08;9.60;;;;;;;6.93;71.90;101259.88;4994938;28;20443;-60
2021/11/10 07:37:41;;;;;;;17.70;9.45;;;;;;;6.91;72.46;101262.34;4994969;28;20054;-60
2021/11/10 07:40:12;;;;;;;18.48;10.07;;;;;;;6.98;72.14;101263.47;4994869;28;20542;-60
2021/11/10 07:42:48;;;;;;;20.45;10.10;;;;;;;7.11;72.15;101268.19;4995194;28;20057;-60
2021/11/10 07:45:30;;;;;;;20.83;9.70;;;;;;;7.12;72.27;101262.34;4994719;28;20051;-60
2021/11/10 07:48:02;;;;;;;22.35;9.70;;;;;;;7.24;72.35;101263.69;4994711;28;20053;-60
2021/11/10 07:50:35;;;;;;;18.05;8.82;;;;;;;7.47;71.67;101266.19;4994679;28;20487;-60
2021/11/10 07:53:07;;;;;;;22.10;10.27;;;;;;;7.61;71.69;101263.34;4994635;28;20141;-60
2021/11/10 07:55:40;;;;;;;19.83;10.52;;;;;;;7.78;71.91;101264.81;4994261;28;20045;-60
2021/11/10 07:58:09;;;;;;;15.55;8.50;;;;;;;7.83;71.84;101254.81;4994898;28;20054;-60
2021/11/10 08:00:41;;;;;;;18.02;8.55;;;;;;;7.97;71.70;101267.19;4994432;28;20137;-61
2021/11/10 08:03:14;;;;;;;15.15;7.95;;;;;;;8.11;71.04;101260.03;4994526;28;20051;-61
2021/11/10 08:05:46;;;;;;;16.77;8.35;;;;;;;8.34;71.20;101258.31;4994449;28;20053;-60
2021/11/10 08:08:16;;;;;;;14.63;7.65;;;;;;;8.54;70.65;101262.41;4993032;28;20062;-61
2021/11/10 08:10:56;;;;;;;16.38;8.70;;;;;;;8.56;69.69;101256.56;4994717;28;20041;-61
2021/11/10 08:13:30;;;;;;;17.23;8.63;;;;;;;8.67;69.90;101256.88;4994395;28;20081;-60
2021/11/10 08:16:01;;;;;;;16.58;8.60;;;;;;;8.91;70.65;101252.56;4994362;28;20034;-61
2021/11/10 08:18:31;;;;;;;15.25;7.88;;;;;;;9.09;70.11;101255.69;4999878;28;20038;-61
2021/11/10 08:21:00;;;;;;;14.00;7.82;;;;;;;9.26;69.82;101251.09;5004206;28;20101;-61
2021/11/10 08:23:30;;;;;;;13.48;7.50;;;;;;;9.47;69.80;101249.19;5000060;28;20050;-61
2021/11/10 08:26:00;;;;;;;14.25;7.32;;;;;;;9.60;68.98;101256.34;5003035;28;20045;-61
2021/11/10 08:28:30;;;;;;;15.73;7.18;;;;;;;9.78;68.21;101250.91;4997433;28;20125;-63
2021/11/10 08:31:00;;;;;;;;;;;;;;;9.99;68.04;101252.34;5008339;28;20038;-60
2021/11/10 08:33:31;;;;;;;13.15;5.13;;;;;;;10.18;66.97;101245.19;5013601;28;19921;-60
2021/11/10 08:36:01;;;;;;;10.75;4.88;;;;;;;10.29;66.69;101244.69;5013535;28;20407;-61
2021/11/10 08:38:31;;;;;;;8.95;4.05;;;;;;;10.34;66.53;101220.09;5013583;28;20088;-61
2021/11/10 08:41:00;;;;;;;6.85;3.75;;;;;;;10.46;65.69;101240.81;5013531;28;20046;-61
2021/11/10 08:43:29;;;;;;;7.10;3.50;;;;;;;10.58;65.57;101233.47;4995925;28;20430;-61
2021/11/10 08:46:01;;;;;;;16.63;6.53;;;;;;;10.67;64.88;101236.28;5013965;28;20499;-61
2021/11/10 08:48:30;;;;;;;8.45;4.05;;;;;;;10.73;64.39;101231.28;5013867;28;20045;-60
2021/11/10 08:50:59;;;;;;;7.57;3.60;;;;;;;10.80;64.53;101231.44;5013343;28;20041;-61
2021/11/10 08:53:29;;;;;;;7.10;3.70;;;;;;;10.80;64.58;101236.56;5004481;28;20074;-61
2021/11/10 08:55:59;;;;;;;6.35;3.55;;;;;;;10.85;65.04;101240.06;4988696;28;20046;-60
2021/11/10 08:58:29;;;;;;;7.20;3.45;;;;;;;10.80;63.85;101200.81;4993778;28;20121;-60
2021/11/10 09:01:00;;;;;;;5.28;2.67;;;;;;;11.06;63.46;101217.56;4993749;28;20520;-61
2021/11/10 09:03:30;;;;;;;6.10;3.08;;;;;;;11.07;62.49;101226.94;4976734;28;20058;-60
2021/11/10 09:06:06;;;;;;;;;;;;;;;11.06;62.00;101223.50;4994063;28;20050;-60
2021/11/10 09:08:35;;;;;;;6.40;2.40;;;;;;;11.20;61.77;101228.94;4993394;28;19925;-60
2021/11/10 09:11:08;;;;;;;5.88;2.83;;;;;;;11.29;61.25;101224.03;4993629;28;20137;-61
2021/11/10 09:13:38;;;;;;;6.22;2.55;;;;;;;11.36;60.95;101220.75;4994035;28;20042;-60
2021/11/10 09:16:11;;;;;;;5.53;2.40;;;;;;;11.40;60.38;101217.44;4993725;28;20050;-60
2021/11/10 09:18:40;;;;;;;5.93;2.88;;;;;;;11.51;60.29;101215.97;4994780;28;20050;-61
2021/11/10 09:21:11;;;;;;;5.13;2.22;;;;;;;11.52;60.31;101215.13;4997683;28;20145;-60
2021/11/10 09:23:40;;;;;;;4.90;2.42;;;;;;;11.70;60.36;101212.97;4980079;28;20050;-60
2021/11/10 09:26:11;;;;;;;5.63;2.75;;;;;;;11.84;60.38;101206.41;4997579;28;20080;-61
2021/11/10 09:28:40;;;;;;;4.10;2.03;;;;;;;11.90;59.76;101210.81;4997178;28;20072;-61
2021/11/10 09:31:14;;;;;;;5.88;3.28;;;;;;;11.97;59.05;101205.78;4997036;28;20133;-61
2021/11/10 09:33:48;;;;;;;8.18;3.33;;;;;;;11.70;58.07;101209.56;4980137;28;20047;-61
2021/11/10 09:36:18;;;;;;;5.68;3.17;;;;;;;11.60;58.09;101200.81;4996912;28;20061;-61
2021/11/10 09:38:47;;;;;;;5.38;2.67;;;;;;;11.55;58.54;101194.72;4996949;28;20141;-61
2021/11/10 09:41:18;;;;;;;5.88;2.55;;;;;;;11.64;58.67;101191.47;4997172;28;20101;-60
2021/11/10 09:43:47;;;;;;;5.30;3.17;;;;;;;11.66;59.03;101175.34;4996944;28;20484;-61
2021/11/10 09:46:29;;;;;;;8.45;4.25;;;;;;;11.80;58.53;101186.75;4997030;28;20554;-61
2021/11/10 09:48:59;;;;;;;8.13;3.95;;;;;;;11.80;58.69;101173.94;4996692;28;20046;-61
2021/11/10 09:51:28;;;;;;;8.75;3.40;;;;;;;11.85;58.87;101177.44;4997754;28;20392;-61
2021/11/10 09:53:59;;;;;;;7.25;3.53;;;;;;;11.82;58.22;101177.41;4997127;28;20447;-60
2021/11/10 09:56:29;;;;;;;6.05;3.30;;;;;;;11.83;57.54;101163.75;4997055;28;20382;-60
2021/11/10 09:58:59;;;;;;;6.80;3.63;;;;;;;12.04;57.54;101168.41;4997401;28;20096;-61
2021/11/10 10:01:34;;;;;;;6.43;3.78;;;;;;;12.15;57.77;101181.38;4996654;28;20492;-61
2021/11/10 10:04:08;;;;;;;6.93;3.83;;;;;;;12.18;57.81;101176.31;4997027;28;20085;-60
2021/11/10 10:06:38;;;;;;;9.88;3.83;;;;;;;12.22;57.42;101172.94;4996578;28;20050;-61
2021/11/10 10:09:08;;;;;;;7.60;3.70;;;;;;;12.28;56.80;101183.31;4995660;28;20053;-60
2021/11/10 10:11:41;;;;;;;6.18;3.17;;;;;;;12.41;56.96;101169.84;4996438;28;20129;-60
2021/11/10 10:14:11;;;;;;;7.28;4.32;;;;;;;12.42;56.59;101162.22;4996350;28;20057;-61
2021/11/10 10:16:42;;;;;;;9.45;4.18;;;;;;;12.64;56.64;101158.28;4996669;28;20093;-61
2021/11/10 10:19:13;;;;;;;6.93;3.53;;;;;;;12.78;56.51;101156.75;4996288;28;20043;-61
2021/11/10 10:21:44;;;;;;;7.72;3.58;;;;;;;12.63;56.02;101156.53;4996529;28;20039;-61
2021/11/10 10:24:16;;;;;;;6.68;3.28;;;;;;;12.52;56.33;101158.09;4996301;28;20051;-61
2021/11/10 10:26:45;;;;;;;10.18;3.78;;;;;;;12.66;56.61;101162.59;4996498;28;20050;-61
2021/11/10 10:29:15;;;;;;;8.95;3.47;;;;;;;12.51;56.35;101146.09;4996071;28;20097;-61
2021/11/10 10:31:48;;;;;;;7.05;3.63;;;;;;;12.40;56.74;101145.09;4995175;28;20046;-61
2021/11/10 10:34:18;;;;;;;6.00;3.40;;;;;;;12.38;57.34;101139.09;4996042;28;20050;-60
2021/11/10 10:36:48;;;;;;;;;;;;;;;12.39;57.06;101131.44;4996601;28;20447;-61
2021/11/10 10:39:19;;;;;;;7.95;3.90;;;;;;;12.35;57.06;101131.34;4995915;28;20009;-61
2021/11/10 10:41:51;;;;;;;6.40;3.45;;;;;;;12.28;56.79;101132.09;4995852;28;20038;-60
2021/11/10 10:44:23;;;;;;;7.85;4.10;;;;;;;12.32;57.04;101123.63;4995857;28;20046;-61
2021/11/10 10:46:59;;;;;;;5.82;3.03;;;;;;;12.43;56.77;101122.09;4996142;28;20496;-60
2021/11/10 10:49:33;;;;;;;7.25;3.97;;;;;;;12.47;56.93;101123.88;4996003;28;20408;-60
2021/11/10 10:52:11;;;;;;;7.25;3.60;;;;;;;12.53;56.83;101114.56;4995668;28;20042;-61
2021/11/10 10:54:41;;;;;;;8.23;3.60;;;;;;;12.52;56.97;101112.00;4995624;28;20057;-60
2021/11/10 10:57:12;;;;;;;7.35;4.38;;;;;;;12.35;56.90;101106.63;4995918;28;20451;-60
2021/11/10 10:59:41;;;;;;;8.88;3.80;;;;;;;12.45;57.03;101102.50;4995971;28;20147;-61
2021/11/10 11:02:12;;;;;;;7.35;3.90;;;;;;;12.44;56.92;101105.88;4995478;28;20050;-60
2021/11/10 11:04:46;;;;;;;7.55;4.20;;;;;;;12.32;57.02;101103.13;4995466;28;20173;-60
2021/11/10 11:07:16;;;;;;;7.53;3.75;;;;;;;12.16;57.09;101085.84;4995901;28;20137;-60
2021/11/10 11:09:47;;;;;;;5.70;3.83;;;;;;;12.38;57.19;101103.25;4995089;28;20116;-60
2021/11/10 11:12:19;;;;;;;6.82;3.47;;;;;;;12.45;57.14;101092.25;4995165;28;20070;-60
2021/11/10 11:14:53;;;;;;;8.85;3.78;;;;;;;12.41;56.49;101082.78;4995684;28;20061;-61
2021/11/10 11:17:30;;;;;;;7.88;4.22;;;;;;;12.43;56.61;101076.00;4995156;28;20054;-60
2021/11/10 11:20:02;;;;;;;8.68;4.25;;;;;;;12.40;57.04;101081.94;4995168;28;20527;-60
2021/11/10 11:22:32;;;;;;;9.05;4.43;;;;;;;12.49;57.22;101078.66;4995043;28;20134;-60
2021/11/10 11:25:13;;;;;;;7.07;3.75;;;;;;;12.58;57.27;101066.81;4995052;28;20056;-60
2021/11/10 11:27:53;;;;;;;9.40;4.60;;;;;;;12.62;56.86;101067.75;4995084;28;20129;-60
2021/11/10 11:30:27;;;;;;;6.88;3.80;;;;;;;12.51;56.80;101065.03;4995281;28;20054;-60
2021/11/10 11:33:04;;;;;;;7.68;3.42;;;;;;;12.58;56.44;101055.72;4996159;28;20494;-60
2021/11/10 11:35:37;;;;;;;8.07;4.75;;;;;;;12.50;56.25;101062.44;4995346;28;20050;-60
2021/11/10 11:38:08;;;;;;;9.63;4.22;;;;;;;12.42;57.00;101061.47;4995187;28;20057;-61
2021/11/10 11:40:40;;;;;;;9.45;4.25;;;;;;;12.45;57.29;101048.72;4994734;28;20046;-61
2021/11/10 11:43:12;;;;;;;10.98;4.70;;;;;;;12.48;57.28;101056.41;4994865;28;20054;-61
2021/11/10 11:45:45;;;;;;;8.02;4.68;;;;;;;12.56;57.39;101052.28;4994673;28;20060;-61
2021/11/10 11:48:17;;;;;;;8.38;4.00;;;;;;;12.61;57.25;101053.19;4994987;28;20050;-60
2021/11/10 11:50:47;;;;;;;7.15;3.78;;;;;;;12.64;57.00;101030.19;4994624;28;20096;-61
2021/11/10 11:53:21;;;;;;;8.57;4.22;;;;;;;12.74;56.99;101042.28;4994641;28;20145;-60